createdAt,value
2018-04-08T00:00:40.201Z,38.53
2018-04-08T00:01:40.226Z,38.57
2018-04-08T00:02:40.180Z,38.62
2018-04-08T00:03:40.232Z,38.56
2018-04-08T00:04:40.227Z,38.59
2018-04-08T00:05:40.192Z,38.57
2018-04-08T00:06:40.462Z,38.52
2018-04-08T00:07:40.200Z,38.59
2018-04-08T00:08:40.204Z,38.61
2018-04-08T00:09:40.223Z,38.58
2018-04-08T00:10:40.221Z,38.59
2018-04-08T00:11:40.236Z,38.59
2018-04-08T00:12:40.167Z,38.56
2018-04-08T00:13:40.194Z,38.58
2018-04-08T00:14:40.160Z,38.63
2018-04-08T00:15:40.206Z,38.5
2018-04-08T00:16:40.212Z,38.58
2018-04-08T00:17:40.225Z,38.62
2018-04-08T00:18:40.203Z,38.57
2018-04-08T00:19:40.174Z,38.5
2018-04-08T00:20:40.195Z,38.59
2018-04-08T00:21:40.201Z,38.55
2018-04-08T00:22:40.214Z,38.58
2018-04-08T00:23:40.194Z,38.63
2018-04-08T00:24:40.182Z,38.55
2018-04-08T00:25:40.200Z,38.62
2018-04-08T00:26:40.197Z,38.66
2018-04-08T00:27:40.203Z,38.56
2018-04-08T00:28:40.198Z,38.6
2018-04-08T00:29:40.193Z,38.57
2018-04-08T00:30:40.187Z,38.58
2018-04-08T00:31:40.204Z,38.61
2018-04-08T00:32:40.204Z,38.6
2018-04-08T00:33:40.183Z,38.56
2018-04-08T00:34:40.281Z,38.53
2018-04-08T00:35:40.309Z,38.58
2018-04-08T00:36:40.164Z,38.55
2018-04-08T00:37:40.177Z,38.58
2018-04-08T00:38:40.198Z,38.58
2018-04-08T00:39:40.187Z,38.49
2018-04-08T00:40:40.192Z,38.5
2018-04-08T00:41:40.149Z,38.74
2018-04-08T00:42:40.175Z,38.55
2018-04-08T00:43:40.196Z,38.57
2018-04-08T00:44:40.210Z,38.57
2018-04-08T00:45:40.204Z,38.55
2018-04-08T00:46:40.178Z,38.52
2018-04-08T00:47:40.192Z,38.63
2018-04-08T00:48:40.206Z,38.58
2018-04-08T00:49:40.215Z,38.61
2018-04-08T00:50:40.321Z,38.61
2018-04-08T00:51:40.193Z,38.58
2018-04-08T00:52:40.190Z,38.5
2018-04-08T00:53:40.159Z,38.57
2018-04-08T00:54:40.184Z,38.59
2018-04-08T00:55:40.194Z,38.61
2018-04-08T00:56:40.208Z,38.6
2018-04-08T00:57:40.218Z,38.6
2018-04-08T00:58:40.173Z,38.61
2018-04-08T00:59:40.214Z,38.57
2018-04-08T01:00:40.211Z,38.58
2018-04-08T01:01:40.177Z,38.62
2018-04-08T01:02:40.151Z,38.61
2018-04-08T01:03:40.192Z,38.55
2018-04-08T01:04:40.169Z,38.59
2018-04-08T01:05:40.199Z,38.66
2018-04-08T01:06:40.205Z,38.59
2018-04-08T01:07:40.193Z,38.59
2018-04-08T01:08:40.196Z,38.64
2018-04-08T01:09:40.181Z,38.58
2018-04-08T01:10:40.194Z,38.61
2018-04-08T01:11:40.182Z,38.65
2018-04-08T01:12:40.199Z,38.57
2018-04-08T01:13:40.227Z,38.57
2018-04-08T01:14:40.185Z,38.63
2018-04-08T01:15:40.178Z,38.63
2018-04-08T01:16:40.234Z,38.44
2018-04-08T01:17:40.208Z,38.58
2018-04-08T01:18:40.172Z,38.57
2018-04-08T01:19:40.192Z,38.6
2018-04-08T01:20:40.200Z,38.56
2018-04-08T01:21:40.189Z,38.6
2018-04-08T01:22:40.217Z,38.59
2018-04-08T01:23:40.180Z,38.59
2018-04-08T01:24:40.183Z,38.59
2018-04-08T01:25:40.130Z,38.58
2018-04-08T01:26:40.231Z,38.56
2018-04-08T01:27:40.171Z,38.58
2018-04-08T01:28:40.202Z,38.58
2018-04-08T01:29:40.200Z,38.58
2018-04-08T01:30:40.203Z,38.62
2018-04-08T01:31:40.186Z,38.56
2018-04-08T01:32:40.166Z,38.56
2018-04-08T01:33:40.154Z,38.63
2018-04-08T01:34:40.186Z,38.55
2018-04-08T01:35:40.184Z,38.54
2018-04-08T01:36:40.189Z,38.71
2018-04-08T01:37:40.184Z,38.56
2018-04-08T01:38:40.177Z,38.62
2018-04-08T01:39:40.161Z,38.53
2018-04-08T01:40:40.168Z,38.53
2018-04-08T01:41:40.174Z,38.52
2018-04-08T01:42:40.171Z,38.55
2018-04-08T01:43:40.154Z,38.49
2018-04-08T01:44:40.177Z,38.57
2018-04-08T01:45:40.162Z,38.54
2018-04-08T01:46:40.165Z,38.59
2018-04-08T01:47:40.183Z,38.57
2018-04-08T01:48:40.157Z,38.53
2018-04-08T01:49:40.160Z,38.58
2018-04-08T01:50:40.192Z,38.55
2018-04-08T01:51:40.170Z,38.52
2018-04-08T01:52:40.191Z,38.57
2018-04-08T01:53:40.131Z,38.59
2018-04-08T01:54:40.161Z,38.55
2018-04-08T01:55:40.165Z,38.52
2018-04-08T01:56:40.176Z,38.61
2018-04-08T01:57:40.209Z,38.66
2018-04-08T01:58:40.138Z,38.51
2018-04-08T01:59:40.142Z,38.46
2018-04-08T02:00:40.142Z,38.55
2018-04-08T02:01:40.184Z,38.56
2018-04-08T02:02:40.165Z,38.35
2018-04-08T02:03:40.174Z,38.51
2018-04-08T02:04:40.163Z,38.54
2018-04-08T02:05:40.126Z,38.54
2018-04-08T02:06:40.143Z,38.49
2018-04-08T02:07:40.163Z,38.53
2018-04-08T02:08:40.170Z,38.6
2018-04-08T02:09:40.176Z,38.53
2018-04-08T02:10:40.139Z,38.54
2018-04-08T02:11:40.137Z,38.5
2018-04-08T02:12:40.179Z,38.46
2018-04-08T02:13:40.148Z,38.53
2018-04-08T02:14:40.156Z,38.63
2018-04-08T02:15:40.151Z,38.48
2018-04-08T02:16:40.140Z,38.52
2018-04-08T02:17:40.180Z,38.5
2018-04-08T02:18:40.158Z,38.47
2018-04-08T02:19:40.210Z,38.55
2018-04-08T02:20:40.180Z,38.55
2018-04-08T02:21:40.176Z,38.5
2018-04-08T02:22:40.159Z,38.58
2018-04-08T02:23:40.177Z,38.47
2018-04-08T02:24:40.222Z,38.55
2018-04-08T02:25:40.150Z,38.55
2018-04-08T02:26:40.132Z,38.54
2018-04-08T02:27:40.158Z,38.51
2018-04-08T02:28:40.150Z,38.47
2018-04-08T02:29:40.163Z,38.53
2018-04-08T02:30:40.160Z,38.56
2018-04-08T02:31:40.143Z,38.44
2018-04-08T02:32:40.145Z,38.61
2018-04-08T02:33:40.124Z,38.6
2018-04-08T02:34:40.137Z,38.54
2018-04-08T02:35:40.255Z,38.54
2018-04-08T02:36:40.241Z,38.47
2018-04-08T02:37:40.163Z,38.49
2018-04-08T02:38:40.134Z,38.57
2018-04-08T02:39:40.233Z,38.52
2018-04-08T02:40:40.166Z,38.52
2018-04-08T02:41:40.153Z,38.53
2018-04-08T02:42:40.123Z,38.45
2018-04-08T02:43:40.172Z,38.56
2018-04-08T02:44:40.129Z,38.52
2018-04-08T02:45:40.132Z,38.52
2018-04-08T02:46:40.151Z,38.54
2018-04-08T02:47:40.170Z,38.5
2018-04-08T02:48:40.174Z,38.44
2018-04-08T02:49:40.158Z,38.53
2018-04-08T02:50:40.157Z,38.55
2018-04-08T02:51:40.135Z,38.5
2018-04-08T02:52:40.160Z,38.52
2018-04-08T02:53:40.154Z,38.54
2018-04-08T02:54:40.162Z,38.53
2018-04-08T02:55:40.169Z,38.54
2018-04-08T02:56:40.140Z,38.51
2018-04-08T02:57:40.188Z,38.55
2018-04-08T02:58:40.143Z,38.54
2018-04-08T02:59:40.123Z,38.54
2018-04-08T03:00:40.189Z,38.49
2018-04-08T03:01:40.152Z,38.52
2018-04-08T03:02:40.142Z,38.56
2018-04-08T03:03:40.122Z,38.51
2018-04-08T03:04:40.138Z,38.54
2018-04-08T03:05:40.177Z,38.55
2018-04-08T03:06:40.158Z,38.48
2018-04-08T03:07:40.144Z,38.54
2018-04-08T03:08:40.160Z,38.54
2018-04-08T03:09:40.163Z,38.54
2018-04-08T03:10:40.156Z,38.54
2018-04-08T03:11:40.200Z,38.5
2018-04-08T03:12:40.137Z,38.54
2018-04-08T03:13:39.973Z,38.52
2018-04-08T03:14:40.106Z,38.5
2018-04-08T03:15:40.172Z,38.54
2018-04-08T03:16:40.430Z,38.58
2018-04-08T03:17:40.152Z,38.54
2018-04-08T03:18:40.137Z,38.54
2018-04-08T03:19:40.150Z,38.48
2018-04-08T03:20:40.158Z,38.54
2018-04-08T03:21:40.152Z,38.36
2018-04-08T03:22:40.169Z,38.62
2018-04-08T03:23:40.139Z,38.46
2018-04-08T03:24:40.137Z,38.49
2018-04-08T03:25:40.150Z,38.53
2018-04-08T03:26:40.154Z,38.46
2018-04-08T03:27:40.150Z,38.46
2018-04-08T03:28:40.136Z,38.52
2018-04-08T03:29:40.138Z,38.53
2018-04-08T03:30:40.171Z,38.52
2018-04-08T03:31:40.128Z,38.52
2018-04-08T03:32:40.134Z,38.51
2018-04-08T03:33:40.125Z,38.53
2018-04-08T03:34:40.180Z,38.59
2018-04-08T03:35:40.134Z,38.56
2018-04-08T03:36:40.146Z,38.57
2018-04-08T03:37:40.166Z,38.58
2018-04-08T03:38:40.197Z,38.54
2018-04-08T03:39:40.105Z,38.44
2018-04-08T03:40:40.147Z,38.52
2018-04-08T03:41:40.142Z,38.58
2018-04-08T03:42:40.155Z,38.44
2018-04-08T03:43:40.122Z,38.54
2018-04-08T03:44:40.156Z,38.47
2018-04-08T03:45:40.112Z,38.48
2018-04-08T03:46:40.160Z,38.44
2018-04-08T03:47:40.142Z,38.52
2018-04-08T03:48:40.142Z,38.42
2018-04-08T03:49:40.155Z,38.49
2018-04-08T03:50:40.144Z,38.57
2018-04-08T03:51:40.111Z,38.65
2018-04-08T03:52:40.124Z,38.52
2018-04-08T03:53:40.121Z,38.57
2018-04-08T03:54:40.135Z,38.43
2018-04-08T03:55:40.118Z,38.53
2018-04-08T03:56:40.136Z,38.53
2018-04-08T03:57:40.135Z,38.52
2018-04-08T03:58:40.118Z,38.49
2018-04-08T03:59:40.108Z,38.48
2018-04-08T04:00:40.129Z,38.46
2018-04-08T04:01:40.167Z,38.53
2018-04-08T04:02:40.173Z,38.45
2018-04-08T04:03:40.112Z,38.43
2018-04-08T04:04:40.127Z,38.44
2018-04-08T04:05:40.110Z,38.51
2018-04-08T04:06:40.118Z,38.4
2018-04-08T04:07:40.125Z,38.52
2018-04-08T04:08:40.131Z,38.48
2018-04-08T04:09:40.106Z,38.43
2018-04-08T04:10:40.129Z,38.42
2018-04-08T04:11:40.147Z,38.41
2018-04-08T04:12:40.118Z,38.33
2018-04-08T04:13:40.172Z,38.4
2018-04-08T04:14:40.126Z,38.39
2018-04-08T04:15:40.131Z,38.31
2018-04-08T04:16:40.117Z,38.33
2018-04-08T04:17:40.102Z,38.39
2018-04-08T04:18:40.134Z,38.27
2018-04-08T04:19:40.116Z,38.37
2018-04-08T04:20:41.565Z,38.29
2018-04-08T04:21:40.100Z,38.18
2018-04-08T04:22:40.133Z,38.27
2018-04-08T04:23:40.150Z,38.31
2018-04-08T04:24:40.111Z,38.26
2018-04-08T04:25:40.104Z,38.26
2018-04-08T04:26:40.154Z,38.27
2018-04-08T04:27:40.129Z,38.22
2018-04-08T04:28:40.097Z,38.33
2018-04-08T04:29:40.107Z,38.35
2018-04-08T04:30:40.124Z,38.28
2018-04-08T04:31:40.097Z,38.38
2018-04-08T04:32:40.112Z,38.38
2018-04-08T04:33:40.115Z,38.28
2018-04-08T04:34:40.128Z,38.34
2018-04-08T04:35:40.115Z,38.42
2018-04-08T04:36:40.215Z,38.32
2018-04-08T04:37:40.274Z,38.37
2018-04-08T04:38:40.120Z,38.39
2018-04-08T04:39:40.125Z,38.34
2018-04-08T04:40:40.109Z,38.39
2018-04-08T04:41:40.145Z,38.4
2018-04-08T04:42:40.112Z,38.33
2018-04-08T04:43:40.119Z,38.44
2018-04-08T04:44:40.142Z,38.43
2018-04-08T04:45:40.168Z,38.4
2018-04-08T04:46:40.127Z,38.42
2018-04-08T04:47:40.139Z,38.4
2018-04-08T04:48:40.111Z,38.4
2018-04-08T04:49:40.120Z,38.42
2018-04-08T04:50:40.085Z,38.39
2018-04-08T04:51:40.168Z,38.45
2018-04-08T04:52:40.119Z,38.44
2018-04-08T04:53:40.094Z,38.45
2018-04-08T04:54:40.113Z,38.37
2018-04-08T04:55:40.094Z,38.44
2018-04-08T04:56:40.112Z,38.46
2018-04-08T04:57:40.088Z,38.36
2018-04-08T04:58:40.114Z,38.42
2018-04-08T04:59:40.166Z,38.42
2018-04-08T05:00:40.120Z,38.33
2018-04-08T05:01:40.131Z,38.38
2018-04-08T05:02:40.105Z,38.37
2018-04-08T05:03:40.210Z,38.33
2018-04-08T05:04:40.089Z,38.35
2018-04-08T05:05:40.102Z,38.42
2018-04-08T05:06:40.108Z,38.33
2018-04-08T05:07:40.121Z,38.33
2018-04-08T05:08:40.121Z,38.35
2018-04-08T05:09:40.153Z,38.37
2018-04-08T05:10:40.112Z,38.36
2018-04-08T05:11:40.097Z,38.33
2018-04-08T05:12:40.124Z,38.34
2018-04-08T05:13:40.167Z,38.38
2018-04-08T05:14:40.085Z,38.36
2018-04-08T05:15:40.094Z,38.29
2018-04-08T05:16:40.118Z,38.34
2018-04-08T05:17:40.094Z,38.32
2018-04-08T05:18:40.095Z,38.33
2018-04-08T05:19:40.105Z,38.3
2018-04-08T05:20:40.130Z,38.34
2018-04-08T05:21:40.092Z,38.27
2018-04-08T05:22:40.103Z,38.33
2018-04-08T05:23:40.090Z,38.34
2018-04-08T05:24:40.103Z,38.27
2018-04-08T05:25:40.107Z,38.33
2018-04-08T05:26:40.080Z,38.32
2018-04-08T05:27:40.097Z,38.33
2018-04-08T05:28:40.127Z,38.33
2018-04-08T05:29:40.147Z,38.35
2018-04-08T05:30:40.131Z,38.29
2018-04-08T05:31:40.101Z,38.29
2018-04-08T05:32:40.080Z,38.28
2018-04-08T05:33:40.108Z,38.3
2018-04-08T05:34:40.101Z,38.33
2018-04-08T05:35:40.083Z,38.33
2018-04-08T05:36:40.070Z,38.31
2018-04-08T05:37:40.097Z,38.34
2018-04-08T05:38:40.074Z,38.33
2018-04-08T05:39:40.113Z,38.3
2018-04-08T05:40:40.125Z,38.31
2018-04-08T05:41:40.123Z,38.36
2018-04-08T05:42:40.090Z,38.28
2018-04-08T05:43:40.110Z,38.34
2018-04-08T05:44:40.119Z,38.3
2018-04-08T05:45:40.102Z,38.32
2018-04-08T05:46:40.116Z,38.29
2018-04-08T05:47:40.118Z,38.36
2018-04-08T05:48:40.115Z,38.32
2018-04-08T05:49:40.098Z,38.35
2018-04-08T05:50:40.097Z,38.33
2018-04-08T05:51:40.108Z,38.32
2018-04-08T05:52:40.107Z,38.32
2018-04-08T05:53:40.091Z,38.35
2018-04-08T05:54:40.053Z,38.31
2018-04-08T05:55:40.072Z,38.33
2018-04-08T05:56:40.088Z,38.35
2018-04-08T05:57:40.068Z,38.35
2018-04-08T05:58:40.088Z,38.36
2018-04-08T05:59:40.072Z,38.29
2018-04-08T06:00:40.093Z,38.33
2018-04-08T06:01:40.065Z,38.34
2018-04-08T06:02:40.097Z,38.32
2018-04-08T06:03:40.100Z,38.33
2018-04-08T06:04:40.104Z,38.34
2018-04-08T06:05:40.108Z,38.29
2018-04-08T06:06:40.103Z,38.32
2018-04-08T06:07:40.125Z,38.34
2018-04-08T06:08:40.061Z,38.33
2018-04-08T06:09:40.078Z,38.3
2018-04-08T06:10:40.118Z,38.33
2018-04-08T06:11:40.090Z,38.38
2018-04-08T06:12:40.079Z,38.34
2018-04-08T06:13:40.122Z,38.29
2018-04-08T06:14:40.082Z,38.33
2018-04-08T06:15:40.417Z,38.28
2018-04-08T06:16:40.070Z,38.33
2018-04-08T06:17:40.215Z,38.27
2018-04-08T06:18:40.077Z,38.26
2018-04-08T06:19:40.085Z,38.31
2018-04-08T06:20:40.104Z,38.34
2018-04-08T06:21:40.127Z,38.25
2018-04-08T06:22:40.053Z,38.33
2018-04-08T06:23:40.056Z,38.32
2018-04-08T06:24:40.083Z,38.25
2018-04-08T06:25:40.110Z,38.33
2018-04-08T06:26:40.055Z,38.3
2018-04-08T06:27:40.097Z,38.29
2018-04-08T06:28:40.094Z,38.31
2018-04-08T06:29:40.049Z,38.32
2018-04-08T06:30:40.120Z,38.32
2018-04-08T06:31:40.099Z,38.3
2018-04-08T06:32:40.066Z,38.27
2018-04-08T06:33:40.167Z,38.26
2018-04-08T06:34:40.116Z,38.27
2018-04-08T06:35:40.064Z,38.33
2018-04-08T06:36:40.079Z,38.27
2018-04-08T06:37:40.185Z,38.3
2018-04-08T06:38:40.146Z,38.32
2018-04-08T06:39:40.074Z,38.28
2018-04-08T06:40:40.074Z,38.33
2018-04-08T06:41:40.032Z,38.42
2018-04-08T06:42:40.070Z,38.31
2018-04-08T06:43:40.078Z,38.28
2018-04-08T06:44:40.085Z,38.34
2018-04-08T06:45:40.093Z,38.26
2018-04-08T06:46:40.081Z,38.28
2018-04-08T06:47:40.083Z,38.3
2018-04-08T06:48:40.085Z,38.3
2018-04-08T06:49:40.084Z,38.3
2018-04-08T06:50:40.095Z,38.31
2018-04-08T06:51:40.104Z,38.27
2018-04-08T06:52:40.068Z,38.26
2018-04-08T06:53:40.088Z,38.34
2018-04-08T06:54:40.072Z,38.22
2018-04-08T06:55:40.288Z,38.29
2018-04-08T06:56:40.074Z,38.31
2018-04-08T06:57:40.085Z,38.29
2018-04-08T06:58:40.082Z,38.27
2018-04-08T06:59:40.082Z,38.28
2018-04-08T07:00:40.117Z,38.26
2018-04-08T07:01:40.061Z,38.3
2018-04-08T07:02:40.083Z,38.27
2018-04-08T07:03:40.094Z,38.27
2018-04-08T07:04:40.077Z,38.32
2018-04-08T07:05:40.096Z,38.29
2018-04-08T07:06:40.053Z,38.27
2018-04-08T07:07:40.080Z,38.26
2018-04-08T07:08:40.099Z,38.31
2018-04-08T07:09:40.046Z,38.26
2018-04-08T07:10:40.086Z,38.3
2018-04-08T07:11:40.054Z,38.32
2018-04-08T07:12:40.090Z,38.26
2018-04-08T07:13:40.064Z,38.3
2018-04-08T07:14:40.074Z,38.3
2018-04-08T07:15:40.058Z,38.29
2018-04-08T07:16:40.092Z,38.26
2018-04-08T07:17:40.085Z,38.29
2018-04-08T07:18:40.077Z,38.26
2018-04-08T07:19:40.042Z,38.3
2018-04-08T07:20:40.054Z,38.3
2018-04-08T07:21:40.161Z,38.28
2018-04-08T07:22:40.054Z,38.26
2018-04-08T07:23:40.071Z,38.32
2018-04-08T07:24:40.214Z,38.27
2018-04-08T07:25:40.063Z,38.26
2018-04-08T07:26:40.139Z,38.31
2018-04-08T07:27:40.102Z,38.27
2018-04-08T07:28:40.081Z,38.25
2018-04-08T07:29:40.117Z,38.26
2018-04-08T07:30:40.121Z,38.23
2018-04-08T07:31:40.035Z,38.24
2018-04-08T07:32:40.150Z,38.28
2018-04-08T07:33:40.077Z,38.26
2018-04-08T07:34:40.058Z,38.28
2018-04-08T07:35:40.044Z,38.23
2018-04-08T07:36:40.123Z,38.25
2018-04-08T07:37:40.072Z,38.22
2018-04-08T07:38:40.047Z,38.27
2018-04-08T07:39:40.066Z,38.28
2018-04-08T07:40:40.053Z,38.23
2018-04-08T07:41:40.120Z,38.38
2018-04-08T07:42:40.059Z,38.3
2018-04-08T07:43:40.062Z,38.37
2018-04-08T07:44:40.349Z,38.46
2018-04-08T07:45:40.012Z,38.41
2018-04-08T07:46:40.012Z,38.42
2018-04-08T07:47:40.080Z,38.45
2018-04-08T07:48:40.055Z,38.42
2018-04-08T07:49:40.069Z,38.39
2018-04-08T07:50:40.039Z,38.44
2018-04-08T07:51:40.061Z,38.42
2018-04-08T07:52:40.073Z,38.49
2018-04-08T07:53:40.062Z,38.53
2018-04-08T07:54:40.094Z,38.58
2018-04-08T07:55:40.075Z,38.68
2018-04-08T07:56:40.052Z,38.66
2018-04-08T07:57:40.047Z,38.62
2018-04-08T07:58:40.056Z,38.71
2018-04-08T07:59:40.056Z,38.73
2018-04-08T08:00:40.052Z,38.8
2018-04-08T08:01:40.156Z,38.79
2018-04-08T08:02:40.058Z,38.77
2018-04-08T08:03:39.929Z,38.83
2018-04-08T08:04:40.032Z,38.79
2018-04-08T08:05:40.122Z,38.73
2018-04-08T08:06:40.054Z,38.7
2018-04-08T08:07:40.078Z,38.77
2018-04-08T08:08:40.032Z,38.76
2018-04-08T08:09:40.055Z,38.79
2018-04-08T08:10:40.351Z,38.61
2018-04-08T08:11:40.038Z,38.62
2018-04-08T08:12:40.072Z,38.53
2018-04-08T08:13:40.042Z,38.49
2018-04-08T08:14:40.076Z,38.46
2018-04-08T08:15:40.050Z,38.49
2018-04-08T08:16:40.041Z,38.41
2018-04-08T08:17:40.049Z,38.44
2018-04-08T08:18:40.082Z,38.4
2018-04-08T08:19:40.054Z,38.47
2018-04-08T08:20:40.071Z,38.39
2018-04-08T08:21:40.043Z,38.43
2018-04-08T08:22:40.085Z,38.36
2018-04-08T08:23:40.118Z,38.43
2018-04-08T08:24:40.046Z,38.38
2018-04-08T08:25:40.042Z,38.36
2018-04-08T08:26:40.022Z,38.29
2018-04-08T08:27:40.037Z,38.34
2018-04-08T08:28:40.037Z,38.78
2018-04-08T08:29:40.035Z,38.79
2018-04-08T08:30:40.130Z,38.75
2018-04-08T08:31:40.040Z,38.84
2018-04-08T08:32:40.045Z,38.94
2018-04-08T08:33:40.064Z,38.78
2018-04-08T08:34:40.040Z,38.77
2018-04-08T08:35:40.049Z,38.88
2018-04-08T08:36:40.047Z,38.75
2018-04-08T08:37:40.023Z,38.7
2018-04-08T08:38:40.189Z,38.79
2018-04-08T08:39:40.146Z,38.76
2018-04-08T08:40:40.013Z,38.65
2018-04-08T08:41:40.093Z,38.59
2018-04-08T08:42:40.105Z,38.52
2018-04-08T08:43:40.117Z,38.62
2018-04-08T08:44:40.067Z,38.78
2018-04-08T08:45:40.037Z,38.59
2018-04-08T08:46:40.320Z,38.55
2018-04-08T08:47:40.022Z,38.56
2018-04-08T08:48:40.056Z,38.49
2018-04-08T08:49:40.085Z,38.73
2018-04-08T08:50:40.018Z,39.09
2018-04-08T08:51:40.081Z,38.9
2018-04-08T08:52:40.049Z,38.84
2018-04-08T08:53:40.061Z,38.71
2018-04-08T08:54:40.022Z,38.77
2018-04-08T08:55:40.050Z,39.09
2018-04-08T08:56:40.046Z,38.98
2018-04-08T08:57:40.030Z,39.06
2018-04-08T08:58:40.044Z,39.41
2018-04-08T08:59:40.040Z,39.43
2018-04-08T09:00:40.044Z,39.79
2018-04-08T09:01:40.050Z,39.68
2018-04-08T09:02:40.040Z,39.07
2018-04-08T09:03:40.023Z,38.95
2018-04-08T09:04:40.026Z,38.87
2018-04-08T09:05:40.031Z,38.89
2018-04-08T09:06:40.234Z,38.81
2018-04-08T09:07:40.035Z,38.85
2018-04-08T09:08:40.046Z,39.26
2018-04-08T09:09:40.025Z,39.1
2018-04-08T09:10:40.028Z,38.98
2018-04-08T09:11:40.046Z,39.32
2018-04-08T09:12:40.017Z,39.32
2018-04-08T09:13:40.031Z,39.3
2018-04-08T09:14:40.027Z,39.31
2018-04-08T09:15:40.012Z,39.3
2018-04-08T09:16:40.066Z,39.32
2018-04-08T09:17:40.040Z,39.28
2018-04-08T09:18:40.035Z,39.37
2018-04-08T09:19:40.052Z,39.46
2018-04-08T09:20:40.047Z,39.32
2018-04-08T09:21:40.073Z,39.27
2018-04-08T09:22:40.037Z,39.3
2018-04-08T09:23:40.022Z,39.22
2018-04-08T09:24:40.074Z,39.21
2018-04-08T09:25:40.017Z,39.22
2018-04-08T09:26:40.074Z,39.18
2018-04-08T09:27:40.022Z,39.07
2018-04-08T09:28:39.987Z,39.13
2018-04-08T09:29:40.145Z,39.07
2018-04-08T09:30:40.096Z,39.34
2018-04-08T09:31:40.019Z,39.27
2018-04-08T09:32:39.999Z,39.16
2018-04-08T09:33:40.001Z,39.01
2018-04-08T09:34:40.051Z,38.95
2018-04-08T09:35:40.046Z,39.29
2018-04-08T09:36:40.020Z,39.25
2018-04-08T09:37:40.016Z,39.37
2018-04-08T09:38:40.028Z,39.3
2018-04-08T09:39:40.044Z,39.24
2018-04-08T09:40:40.005Z,39.4
2018-04-08T09:41:40.021Z,39.45
2018-04-08T09:42:40.015Z,39.29
2018-04-08T09:43:40.040Z,39.25
2018-04-08T09:44:40.016Z,39.32
2018-04-08T09:45:40.184Z,39.25
2018-04-08T09:46:40.006Z,39.27
2018-04-08T09:47:40.012Z,39.4
2018-04-08T09:48:40.040Z,39.39
2018-04-08T09:49:40.016Z,39.38
2018-04-08T09:50:40.078Z,39.39
2018-04-08T09:51:40.073Z,39.32
2018-04-08T09:52:40.035Z,39.24
2018-04-08T09:53:39.989Z,39.24
2018-04-08T09:54:40.052Z,39.28
2018-04-08T09:55:40.017Z,39.32
2018-04-08T09:56:40.023Z,39.38
2018-04-08T09:57:40.037Z,39.33
2018-04-08T09:58:40.008Z,39.37
2018-04-08T09:59:40.002Z,39.35
2018-04-08T10:00:40.008Z,39.38
2018-04-08T10:01:40.013Z,39.31
2018-04-08T10:02:40.017Z,39.41
2018-04-08T10:03:40.089Z,39.35
2018-04-08T10:04:40.009Z,39.37
2018-04-08T10:05:40.196Z,39.22
2018-04-08T10:06:40.025Z,39.35
2018-04-08T10:07:40.041Z,39.36
2018-04-08T10:08:40.017Z,39.33
2018-04-08T10:09:39.999Z,39.34
2018-04-08T10:10:22.173Z,39.3
2018-04-08T10:11:22.171Z,38.84
2018-04-08T10:12:22.070Z,38.87
2018-04-08T10:13:22.021Z,38.82
2018-04-08T10:14:22.008Z,38.87
2018-04-08T10:15:22.153Z,38.96
2018-04-08T10:16:15.584Z,39.02
2018-04-08T10:17:15.682Z,39.21
2018-04-08T10:18:15.552Z,38.92
2018-04-08T10:19:15.605Z,38.69
2018-04-08T10:20:15.503Z,38.65
2018-04-08T10:21:15.382Z,38.53
2018-04-08T10:22:00.596Z,38.54
2018-04-08T10:23:00.892Z,38.38
2018-04-08T10:24:00.551Z,38.39
2018-04-08T10:25:00.498Z,38.45
2018-04-08T10:26:00.502Z,38.7
2018-04-08T10:27:00.574Z,38.7
2018-04-08T10:28:00.570Z,38.71
2018-04-08T10:29:00.642Z,38.67
2018-04-08T10:30:00.513Z,38.72
2018-04-08T10:31:00.582Z,38.67
2018-04-08T10:32:00.627Z,38.75
2018-04-08T10:33:00.406Z,38.91
2018-04-08T10:34:00.570Z,38.84
2018-04-08T10:35:00.438Z,38.74
2018-04-08T10:36:00.657Z,38.67
2018-04-08T10:37:00.807Z,38.63
2018-04-08T10:38:00.616Z,38.96
2018-04-08T10:39:00.703Z,38.71
2018-04-08T10:40:00.430Z,38.9
2018-04-08T10:41:00.512Z,38.81
2018-04-08T10:42:00.491Z,38.89
2018-04-08T10:43:00.768Z,38.83
2018-04-08T10:44:00.617Z,38.84
2018-04-08T10:45:00.643Z,38.87
2018-04-08T10:46:00.598Z,39.05
2018-04-08T10:47:01.033Z,39.14
2018-04-08T10:48:00.766Z,38.94
2018-04-08T10:49:00.582Z,39.24
2018-04-08T10:50:00.387Z,39.29
2018-04-08T10:51:00.615Z,39.01
2018-04-08T10:52:00.500Z,39.13
2018-04-08T10:53:00.441Z,39.2
2018-04-08T10:54:00.698Z,39.29
2018-04-08T10:55:00.438Z,39.23
2018-04-08T10:56:00.576Z,39.24
2018-04-08T10:57:00.436Z,39.29
2018-04-08T10:58:00.461Z,39.35
2018-04-08T10:59:12.607Z,39.13
2018-04-08T11:00:12.395Z,39.17
2018-04-08T11:01:12.517Z,39.1
2018-04-08T11:02:12.431Z,39.19
2018-04-08T11:03:12.580Z,39.32
2018-04-08T11:04:12.580Z,39.43
2018-04-08T11:05:12.469Z,39.19
2018-04-08T11:06:12.375Z,39.27
2018-04-08T11:07:12.813Z,41.17
2018-04-08T11:08:12.542Z,39.47
2018-04-08T11:09:12.508Z,39.42
2018-04-08T11:10:12.539Z,39.51
2018-04-08T11:11:12.611Z,39.52
2018-04-08T11:12:12.641Z,39.5
2018-04-08T11:13:12.625Z,39.57
2018-04-08T11:14:12.608Z,39.63
2018-04-08T11:15:12.472Z,39.66
2018-04-08T11:16:12.624Z,39.58
2018-04-08T11:17:12.454Z,39.53
2018-04-08T11:18:12.475Z,39.49
2018-04-08T11:19:12.707Z,39.53
2018-04-08T11:20:13.041Z,39.57
2018-04-08T11:21:12.521Z,39.55
2018-04-08T11:22:12.738Z,39.54
2018-04-08T11:23:12.532Z,39.26
2018-04-08T11:24:12.616Z,39.03
2018-04-08T11:25:12.458Z,39
2018-04-08T11:26:12.473Z,39.11
2018-04-08T11:27:12.451Z,38.89
2018-04-08T11:28:12.524Z,38.97
2018-04-08T11:29:12.405Z,38.91
2018-04-08T11:30:12.726Z,38.85
2018-04-08T11:31:12.667Z,38.72
2018-04-08T11:32:12.537Z,38.7
2018-04-08T11:33:12.709Z,38.65
2018-04-08T11:34:12.518Z,38.72
2018-04-08T11:35:12.592Z,38.57
2018-04-08T11:36:12.427Z,38.74
2018-04-08T11:37:12.613Z,38.83
2018-04-08T11:38:12.584Z,38.88
2018-04-08T11:39:12.607Z,38.96
2018-04-08T11:40:12.740Z,38.92
2018-04-08T11:41:12.599Z,38.97
2018-04-08T11:42:12.447Z,38.9
2018-04-08T11:43:12.468Z,38.92
2018-04-08T11:44:12.459Z,38.81
2018-04-08T11:45:12.807Z,38.85
2018-04-08T11:46:12.666Z,38.81
2018-04-08T11:47:12.624Z,38.87
2018-04-08T11:48:12.496Z,38.68
2018-04-08T11:49:12.510Z,38.71
2018-04-08T11:50:12.393Z,38.59
2018-04-08T11:51:12.447Z,38.58
2018-04-08T11:52:12.573Z,38.5
2018-04-08T11:53:12.399Z,38.58
2018-04-08T11:54:12.545Z,38.64
2018-04-08T11:55:12.407Z,38.63
2018-04-08T11:56:12.406Z,38.6
2018-04-08T11:57:12.397Z,38.65
2018-04-08T11:58:12.821Z,38.7
2018-04-08T11:59:12.411Z,38.66
2018-04-08T12:00:12.606Z,38.58
2018-04-08T12:01:12.482Z,38.66
2018-04-08T12:02:12.559Z,38.56
2018-04-08T12:03:12.404Z,38.56
2018-04-08T12:04:12.392Z,38.58
2018-04-08T12:05:12.419Z,38.58
2018-04-08T12:06:12.544Z,38.49
2018-04-08T12:07:12.543Z,38.64
2018-04-08T12:08:12.557Z,38.61
2018-04-08T12:09:12.610Z,38.62
2018-04-08T12:10:12.467Z,38.67
2018-04-08T12:11:12.413Z,38.68
2018-04-08T12:12:12.463Z,38.65
2018-04-08T12:13:12.582Z,38.64
2018-04-08T12:14:12.590Z,38.69
2018-04-08T12:15:12.400Z,38.77
2018-04-08T12:16:12.548Z,38.62
2018-04-08T12:17:12.553Z,38.66
2018-04-08T12:18:12.388Z,38.67
2018-04-08T12:19:12.597Z,38.66
2018-04-08T12:20:12.504Z,38.68
2018-04-08T12:21:12.393Z,38.72
2018-04-08T12:22:12.602Z,38.65
2018-04-08T12:23:12.417Z,38.64
2018-04-08T12:24:12.497Z,38.64
2018-04-08T12:25:12.397Z,38.64
2018-04-08T12:26:12.514Z,38.63
2018-04-08T12:27:12.571Z,38.62
2018-04-08T12:28:12.564Z,38.61
2018-04-08T12:29:12.577Z,38.61
2018-04-08T12:30:12.466Z,38.52
2018-04-08T12:31:12.474Z,38.62
2018-04-08T12:32:12.401Z,38.59
2018-04-08T12:33:12.350Z,38.59
2018-04-08T12:34:12.347Z,38.49
2018-04-08T12:35:12.353Z,38.52
2018-04-08T12:36:12.359Z,38.54
2018-04-08T12:37:12.398Z,38.55
2018-04-08T12:38:12.364Z,38.5
2018-04-08T12:39:12.389Z,38.52
2018-04-08T12:40:12.213Z,38.51
2018-04-08T12:41:12.399Z,38.54
2018-04-08T12:42:12.499Z,38.52
2018-04-08T12:43:12.460Z,38.51
2018-04-08T12:44:12.382Z,38.38
2018-04-08T12:45:12.632Z,38.37
2018-04-08T12:46:12.416Z,38.38
2018-04-08T12:47:12.356Z,38.2
2018-04-08T12:48:12.364Z,38.33
2018-04-08T12:49:12.395Z,38.26
2018-04-08T12:50:12.609Z,38.25
2018-04-08T12:51:12.381Z,38.19
2018-04-08T12:52:12.420Z,38.28
2018-04-08T12:53:12.357Z,38.2
2018-04-08T12:54:12.440Z,38.21
2018-04-08T12:55:12.433Z,38.22